Terminal Aerodrome Forecast
Issued by NWS

Home | Current Version | Previous Version | Text Only | Print | Product List | Glossary On
Versions: 1 2 3 4 5 6 7 8 9 10 11 12 13 14 15 16 17
000
FTUS43 KAPX 261700
TAFTVC
TAF
KTVC 261739Z 2618/2718 23010G17KT P6SM SCT022 BKN080
      TEMPO 2619/2621 5SM -SHRA OVC022
     FM270100 VRB03KT P6SM BKN040
     FM270700 00000KT 4SM BR SCT040=

USA.gov is the U.S. government's official web portal to all federal, state and local government web resources and services.